العودة   :: Flying Way :: > ._][_ سـاحة المطـار والطائرات Airport and Aircraft's yard _][_. > السلامة الجوية Flight Safety
تحديث الصفحة [حـادث] تحطم طائرة ركاب بنغالية واشتعال النيران فيها قرب مطار كاتماندو بنيبال ووفاة 39 مسافر على متنها
الملاحظات

السلامة الجوية Flight Safety   متابعة أخبار حوادث الطيران وتحليل المعلومات التي أدت إليها. راجع فهرس قسم  السلامة الجوية

أدوات الموضوع إبحث في الموضوع
الصورة الرمزية محمد احمد عسيري
Flying Way
قديم 12-03-2018, 01:32 PM   رقم المشاركة : [ 1 ]   
مشاهدة ملفه الشخصي
 
 
 
تم شكره 3,857 مرة في 2,094 مشاركة
محمد احمد عسيري يستحق الثقة والتقديرمحمد احمد عسيري يستحق الثقة والتقديرمحمد احمد عسيري يستحق الثقة والتقديرمحمد احمد عسيري يستحق الثقة والتقديرمحمد احمد عسيري يستحق الثقة والتقديرمحمد احمد عسيري يستحق الثقة والتقديرمحمد احمد عسيري يستحق الثقة والتقديرمحمد احمد عسيري يستحق الثقة والتقديرمحمد احمد عسيري يستحق الثقة والتقديرمحمد احمد عسيري يستحق الثقة والتقديرمحمد احمد عسيري يستحق الثقة والتقدير
معدل تقييم المستوى: 14315
Exclamation تحطم طائرة ركاب بنغالية واشتعال النيران فيها قرب مطار كاتماندو بنيبال ووفاة 39 مسافر على متنها


تحطمت طائرة ركاب بنغالية قرب مطار كاتماندو في النيبال الاثنين بينما كانت على مشارف الهبوط، بحسب ما أعلن متحدث باسم المطار.

وطائرة الركاب التي تحطمت تابعة لشركة "يوس إس بنغالا" البنغالية الخاصة. وكانت في رحلة قادمة من العاصمة البنغالية دكا.

وقال المتحدث باسم المطار: "نحاول إخماد الحريق وإنقاذ المسافرين.. وننتظر التفاصيل".

وبحسب مسؤول في المطار كانت الطائرة تحمل 71 راكباً، وجرى إنقاذ 17 منهم.

من جهته، قال شاهد عيان لوكالة "رويترز" أن عمال الإنقاذ ينتشلون جثثاً متفحمة من حطام الطائرة.

وأمكن رؤية سحب الدخان الكثيف تتصاعد من الطائرة، التي كانت في حقل على حافة المطار.

https://www.alarabiya.net/ar/arab-an...يران-فيها.html

2 أعضاء قالوا شكراً لـ محمد احمد عسيري على المشاركة المفيدة:
alzaiem (12-03-2018), الطيران العمانـي (12-03-2018)
قديم 12-03-2018, 06:25 PM   رقم المشاركة : [ 2 ]   
محمد احمد عسيري
Flying Way
الصورة الرمزية محمد احمد عسيري
Exclamation رد: تحطم طائرة ركاب بنغالية واشتعال النيران فيها قرب مطار كاتماندو بنيبال

قال مسؤول في مطار كاتماندو بنيبال إن 50 شخصا على الأقل قتلوا في تحطم الطائرة البنغالية التي سقطت أثناء هبوطها في العاصمة النيبالية كاتماندو، مشيرا إلى أنه جرى إنقاذ 17 شخصا.

وشوهدت أعمدة الدخان تتصاعد من ملعب كرة القدم، حيث تحطمت الطائرة شرق المدرج في مطار نيبال الدولي بالعاصمة كاتماندو.

وذكر المتحدث باسم المطار بريم ناث ثاكور، أن عمال إنقاذ انتشلوا جثثا متفحمة من حطام الطائرة، التي كانت تحمل 67 راكبا و4 من أفراد الطاقم.

وأضاف: "نحاول إخماد حريق شب في الطائرة وننتظر التفاصيل"، فيما جرى إغلاق المطار وجرى تحويل مسار كل الرحلات الأخرى، وأظهرت لقطات تلفزيونية الدخان يتصاعد من موقع الحادث.

من جانبه، أوضح الناطق باسم الحكومة، نارايان براساد دوادي: "حتى الآن، تم نقل 20 مصابا إلى المستشفى. يحاول عناصر الشرطة والجيش تقطيع حطام الطائرة لإنقاذ آخرين".

وظهرت سيارات الطوارئ وهي تتوجه إلى موقع تصاعد الدخان فيما وقف أشخاص يتفرجون من بعيد أو يصورون عبر هواتفهم النقالة.

وتشتهر نيبال ذات الطبيعة الجبلية بالحوادث الجوية. وكثيرا ما تواجه الطائرات الصغيرة مشكلات في مسارات جوية بين الأقاليم.

وتحطمت طائرة ركاب تايلاندية قادمة من بانكوك، بينما كانت تحاول الهبوط في كاتماندو عام 1992 مما أدى إلى مقتل كل من كانوا على متنها.

والطائرة تابعة لشركة يو.إس-بانغلا وهي مشروع مشترك بين بنغلادش والولايات المتحدة.




















https://www.skynewsarabia.com/world/...-بملعب-كرة-قدم
  إقتباس
3 أعضاء قالوا شكراً لـ محمد احمد عسيري على المشاركة المفيدة:
AboAbdulla (13-03-2018), alzaiem (12-03-2018), الطيران العمانـي (12-03-2018)
قديم 12-03-2018, 06:31 PM   رقم المشاركة : [ 3 ]   
محمد احمد عسيري
Flying Way
الصورة الرمزية محمد احمد عسيري
Exclamation رد: تحطم طائرة ركاب بنغالية واشتعال النيران فيها قرب مطار كاتماندو بنيبال ووفاة 39 مسافر على متنها


A US-Bangla de Havilland Dash 8-400, registration S2-AGU performing flight BS-211 from Dhaka (Bangladesh) to Kathmandu (Nepal) with 67 passengers and 4 crew, was on final approach to Kathmandu's runway 02 cleared to land, when the aircraft turned left, tower radioed "Do not turn towards runway 20, turn right" and repeated "cleared to land runway 02". The crew requested to land on runway 20, tower cleared the aircraft to land on runway 20. When tower queried the aircraft whether they had the runway in sight, the crew responded "negative". Tower queried whether they had runway 02 in sight, crew affirmed, tower cleared the flight again to land on runway 02. The aircraft collided with the ground and burst into flames at about 14:25L (0835Z), tower stopped all traffic in and out of Kathmandu and sent arriving aircraft into holds reporting an aircraft accident. 49 people perished in the accident, 22 people were rescued alive.

Rescue services took 39 occupants to hospitals, however, eight of them were pronounced dead upon arrival at the hospital. 31 bodies were recovered from the wreckage.

The Ministry of Tourism reported 39 people died in the accident, 31 were rescued alive.

Later in the evening Nepali Police reported that 22 people are in hospital case, 31 bodies were recovered from the wreckage, 9 people were pronounced dead at the hospitals. 49 people died in the accident.

Ground observers reported the aircraft turned suddenly left, overflew two aircraft, came very close to the control tower and went out of sight. A large plume of smoke began to rise seconds later.

The airport reported the aircraft veered right off the runway and slid for about 300 meters until coming to a rest on a soccer field and burst into flames. The airport later added: "The plane flew past just above the air-traffic control tower during its descent for landing. It touched down the ground just next to a parked plane and ploughed through a fence on the east side of the airport, and plunged into the lower ground."

Metars:
VNKT 120950Z 31011KT 280V350 7000 TS FEW015 FEW025CB SCT030 BKN100 20/10 Q1015 NOSIG CB TO SE NW N AND E=
VNKT 120920Z 27005KT 230V320 7000 TS FEW015 FEW025CB SCT030 BKN100 20/10 Q1015 NOSIG CB TO SE W N E AND OVERHEAD=
VNKT 120850Z 26007KT 140V300 7000 FEW015 FEW025CB SCT030 BKN100 21/10 Q1015 NOSIG CB TO SE AND S=
VNKT 120820Z 28008KT 240V320 6000 TS FEW015 FEW025CB SCT030 22/11 Q1015 NOSIG CB TO SE S AND SW=
VNKT 120750Z 25007KT 200V300 6000 FEW015 FEW025TCU SCT030 22/10 Q1016 NOSIG=
VNKT 120720Z 31006KT 6000 FEW015 SCT030 22/10 Q1016 NOSIG=
VNKT 120650Z 31008KT 6000 FEW015 SCT030 21/10 Q1017 NOSIG=
VNKT 120620Z 27005KT 230V340 5000 HZ FEW015 SCT030 21/09 Q1018 NOSIG=
VNKT 120550Z 29004KT 5000 HZ FEW015 20/10 Q1019 NOSIG=
VNKT 120520Z 00000KT 4000 HZ FEW015 19/11 Q1019 NOSIG=

S2-AGU on the ground (Photo: Narayan Amrit):


Map


http://avherald.com/h?article=4b5fa1cb&opt=0
  إقتباس
2 أعضاء قالوا شكراً لـ محمد احمد عسيري على المشاركة المفيدة:
alzaiem (12-03-2018), pakhet (14-03-2018)
قديم 12-03-2018, 10:55 PM   رقم المشاركة : [ 4 ]   
عاشق A380
.. المراقب العام ..
سبحان الله وبحمده
سبحان الله العظيم
الصورة الرمزية عاشق A380
افتراضي رد: تحطم طائرة ركاب بنغالية واشتعال النيران فيها قرب مطار كاتماندو بنيبال ووفاة 39 مسافر على متنها

مطار العاصمة النيبالية من أصعب المطارات في الهبوط والإقلاع
فما بالك إذا زاد الطين بلة بأي من العوامل الأخرى مثل الطقس او الأعطال الفنية أو الأخطاء البشرية ... إلخ
تعازينا لذوي الضحايا

شكرا اخي محمد على النقل

التوقيع عاشق A380
إقرأ القرآن الكريم
  إقتباس
3 أعضاء قالوا شكراً لـ عاشق A380 على المشاركة المفيدة:
محمد احمد عسيري (13-03-2018), الطيران العمانـي (13-03-2018), pakhet (14-03-2018)
إضافة رد

«     سقوط طائرة هيلوكوبتر بنهر الشرق بنيويورك ونجاة قائد الطائرة ووفاة 5 من ركابها   |    خسائر "ثقيلة" لحوادث الطيران منذ بداية 2018    »


الذين يشاهدون محتوى الموضوع الآن : 1 ( الأعضاء 0 والزوار 1)
 
أدوات الموضوع إبحث في الموضوع
إبحث في الموضوع:

البحث المتقدم

الانتقال السريع

المواضيع المتشابهه
الموضوع كاتب الموضوع المنتدى مشاركات آخر مشاركة
[أخبـار] انزلاق طائرة ماليزية من نوع B737 على مدرج مطار كاتماندو بنيبال محمد احمد عسيري السلامة الجوية Flight Safety 1 20-04-2018 05:51 PM
تحطم طائرة مروحية تابعة للجيش التركي ووفاة 13 جندي على متنها محمد احمد عسيري السلامة الجوية Flight Safety 1 01-06-2017 04:18 PM
طائرة هندية تهبط اضطراريا في مطار كاتماندو بعد اشتعال النيران في أحد محركاتها عاشق A380 المقالات الصحفية Rumours &News 1 30-12-2014 07:31 AM
تحطم طائرة ركاب تركية وعلى متنها 135 راكبا أثناء محاولة الهبوط في مطار أمستردام الهولندي نصف الدنيا السلامة الجوية Flight Safety 32 26-02-2009 06:58 PM
[مواضيع مدمجة] تحطم طائرة ركاب سودانية عند هبوطها في مطار الخرطوم واشتعال النيران بها commander-plane السلامة الجوية Flight Safety 207 22-06-2008 06:21 PM

الساعة الآن 03:30 AM.
Powered by vBulletin® Version 3.8.9
Copyright ©2000 - 2018, vBulletin Solutions, Inc.
حق العلم والمعرفة يعادل حق الحياة للأنسان - لذا نحن كمسؤلين في الشبكة متنازلون عن جميع الحقوق
All trademarks and copyrights held by respective owners. Member comments are owned by the poster.
خط الطيران 2004-2018